Time;durP1;ratioP1;P1;durP2;ratioP2;P2;SDS_P1;SDS_P2;PMS_P1;PMS_P2;Temp;Humidity;BMP_temperature;BMP_pressure;BME280_temperature;BME280_humidity;BME280_pressure;Samples;Min_cycle;Max_cycle;Signal;HPM_P1;HPM_P2
2022/05/18 00:01:50;;;;;;;3.17;1.80;;;16.30;99.90;;;;;;6200201;23;20408;-84
2022/05/18 00:04:15;;;;;;;4.55;1.90;;;16.30;99.90;;;;;;6200897;23;20078;-75
2022/05/18 00:06:41;;;;;;;5.35;2.22;;;16.20;99.90;;;;;;6205116;23;20658;-86
2022/05/18 00:09:07;;;;;;;2.33;2.10;;;16.20;99.90;;;;;;6200393;23;20524;-86
2022/05/18 00:11:33;;;;;;;3.33;1.60;;;16.10;99.90;;;;;;6202507;23;20445;-83
2022/05/18 00:13:59;;;;;;;3.95;1.67;;;16.10;99.90;;;;;;6198435;23;20020;-85
2022/05/18 00:16:26;;;;;;;2.13;1.70;;;16.00;99.90;;;;;;6203259;23;20001;-83
2022/05/18 00:18:52;;;;;;;4.43;1.80;;;16.00;99.90;;;;;;6198915;23;20031;-80
2022/05/18 00:21:18;;;;;;;3.75;1.48;;;16.00;99.90;;;;;;6198420;23;20028;-85
2022/05/18 00:23:44;;;;;;;1.85;1.63;;;15.90;99.90;;;;;;6203862;23;20020;-85
2022/05/18 00:26:10;;;;;;;3.22;1.50;;;15.90;99.90;;;;;;6197995;23;20407;-83
2022/05/18 00:28:36;;;;;;;4.90;1.70;;;15.80;99.90;;;;;;6203690;23;20008;-81
2022/05/18 00:31:03;;;;;;;3.92;2.05;;;15.90;99.90;;;;;;6199526;23;20454;-74
2022/05/18 00:33:29;;;;;;;5.65;1.63;;;15.80;99.90;;;;;;6197125;23;20013;-74
2022/05/18 00:35:57;;;;;;;5.25;1.63;;;15.80;99.90;;;;;;6199862;23;20076;-74
2022/05/18 00:38:22;;;;;;;3.38;1.83;;;15.70;99.90;;;;;;6176116;23;20048;-72
2022/05/18 00:40:50;;;;;;;5.13;1.38;;;15.60;99.90;;;;;;6202164;23;20028;-78
2022/05/18 00:43:20;;;;;;;4.40;1.80;;;15.50;99.90;;;;;;6201702;23;20015;-75
2022/05/18 00:45:46;;;;;;;3.85;2.20;;;15.40;99.90;;;;;;6201038;23;20011;-75
2022/05/18 00:48:12;;;;;;;5.97;2.10;;;15.30;99.90;;;;;;6196410;23;20073;-74
2022/05/18 00:50:40;;;;;;;4.18;1.80;;;15.20;99.90;;;;;;6200116;23;20000;-75
2022/05/18 00:53:14;;;;;;;3.35;1.55;;;15.20;99.90;;;;;;6201489;23;20088;-73
2022/05/18 00:55:44;;;;;;;4.78;1.73;;;15.10;99.90;;;;;;6201015;23;19997;-77
2022/05/18 00:58:21;;;;;;;7.45;2.35;;;15.00;99.90;;;;;;6195444;23;20073;-76
2022/05/18 01:00:48;;;;;;;4.40;1.70;;;15.00;99.90;;;;;;6199812;23;20001;-74
2022/05/18 01:03:20;;;;;;;7.90;1.52;;;15.00;99.90;;;;;;6201232;23;20012;-74
2022/05/18 01:05:49;;;;;;;1.98;1.55;;;15.00;99.90;;;;;;6201427;23;20001;-73
2022/05/18 01:08:20;;;;;;;4.43;1.42;;;14.90;99.90;;;;;;6203551;23;20015;-73
2022/05/18 01:10:46;;;;;;;3.47;1.80;;;14.90;99.90;;;;;;6204602;23;20072;-73
2022/05/18 01:13:12;;;;;;;8.32;1.70;;;14.90;99.90;;;;;;6203460;23;20032;-73
2022/05/18 01:15:38;;;;;;;3.30;1.80;;;14.80;99.90;;;;;;6205398;23;20005;-73
2022/05/18 01:18:04;;;;;;;4.47;1.88;;;14.70;99.90;;;;;;6203226;23;20012;-72
2022/05/18 01:20:35;;;;;;;2.00;1.80;;;14.70;99.90;;;;;;6204664;23;20610;-73
2022/05/18 01:23:29;;;;;;;5.05;1.60;;;14.60;99.90;;;;;;6202731;23;20027;-73
2022/05/18 01:26:13;;;;;;;2.15;1.50;;;14.60;99.90;;;;;;6175723;23;20741;-73
2022/05/18 01:28:42;;;;;;;3.22;1.52;;;14.50;99.90;;;;;;6202636;23;20001;-73
2022/05/18 01:31:08;;;;;;;5.65;1.58;;;14.50;99.90;;;;;;6203715;23;20625;-73
2022/05/18 01:33:35;;;;;;;3.63;1.80;;;14.50;99.90;;;;;;6203513;23;20009;-72
2022/05/18 01:36:02;;;;;;;2.28;1.40;;;14.40;99.90;;;;;;6205396;23;20013;-73
2022/05/18 01:38:29;;;;;;;5.43;1.83;;;14.30;99.90;;;;;;6203978;23;20017;-73
2022/05/18 01:41:03;;;;;;;2.78;1.33;;;14.20;99.90;;;;;;6205486;23;20000;-73
2022/05/18 01:43:54;;;;;;;2.50;1.48;;;14.20;99.90;;;;;;6203409;23;20015;-73
2022/05/18 01:46:21;;;;;;;2.35;1.58;;;14.20;99.90;;;;;;6182541;23;20131;-73
2022/05/18 01:48:50;;;;;;;3.78;1.88;;;14.30;99.90;;;;;;6205058;23;20382;-72
2022/05/18 01:51:32;;;;;;;2.90;1.65;;;14.20;99.90;;;;;;6202498;23;20015;-72
2022/05/18 01:53:58;;;;;;;3.38;1.83;;;14.20;99.90;;;;;;6201555;23;19996;-73
2022/05/18 01:56:24;;;;;;;8.77;1.70;;;14.20;99.90;;;;;;6176503;23;20000;-73
2022/05/18 01:58:49;;;;;;;5.18;1.60;;;14.20;99.90;;;;;;6203621;23;20016;-72
2022/05/18 02:01:15;;;;;;;3.38;1.23;;;14.20;99.90;;;;;;6201703;23;20009;-72
2022/05/18 02:03:41;;;;;;;1.55;1.40;;;14.10;99.90;;;;;;6203167;23;20023;-73
2022/05/18 02:06:07;;;;;;;1.45;1.02;;;14.00;99.90;;;;;;6200030;23;20013;-72
2022/05/18 02:08:32;;;;;;;12.13;1.55;;;13.90;99.90;;;;;;6198632;23;20023;-72
2022/05/18 02:10:58;;;;;;;3.55;1.38;;;13.70;99.90;;;;;;6199263;23;20020;-73
2022/05/18 02:13:24;;;;;;;15.32;2.78;;;13.60;99.90;;;;;;6203687;23;20031;-72
2022/05/18 02:15:50;;;;;;;2.65;1.60;;;13.50;99.90;;;;;;6197054;23;20012;-73
2022/05/18 02:18:16;;;;;;;2.60;1.30;;;13.60;99.90;;;;;;6200689;23;20047;-72
2022/05/18 02:20:42;;;;;;;3.20;1.70;;;13.60;99.90;;;;;;6200471;23;20970;-73
2022/05/18 02:23:08;;;;;;;1.60;1.30;;;13.60;99.90;;;;;;6198353;23;20044;-86
2022/05/18 02:25:37;;;;;;;4.53;1.65;;;13.60;99.90;;;;;;6203720;23;20004;-86
2022/05/18 02:28:03;;;;;;;3.08;1.70;;;13.50;99.90;;;;;;6202622;23;20019;-85
2022/05/18 02:30:29;;;;;;;3.40;1.25;;;13.50;99.90;;;;;;6200923;23;20796;-87
2022/05/18 02:32:55;;;;;;;4.47;2.65;;;13.40;99.90;;;;;;6201050;23;20128;-86
2022/05/18 02:35:21;;;;;;;7.90;1.67;;;13.40;99.90;;;;;;6203989;23;20029;-87
2022/05/18 02:37:46;;;;;;;3.60;1.30;;;13.50;99.90;;;;;;6202701;23;20016;-86
2022/05/18 02:40:13;;;;;;;1.98;1.60;;;13.50;99.90;;;;;;6204174;23;20008;-72
2022/05/18 02:42:38;;;;;;;4.47;1.50;;;13.60;99.90;;;;;;6202038;23;20070;-72
2022/05/18 02:45:06;;;;;;;5.05;1.67;;;13.50;99.90;;;;;;6201695;23;20440;-72
2022/05/18 02:47:31;;;;;;;3.15;1.60;;;13.50;99.90;;;;;;6196855;23;20596;-72
2022/05/18 02:49:57;;;;;;;2.22;1.60;;;13.60;99.90;;;;;;6204696;23;20104;-72
2022/05/18 02:52:23;;;;;;;3.63;2.25;;;13.60;99.90;;;;;;6201829;23;20718;-72
2022/05/18 02:57:33;;;;;;;9.15;1.75;;;13.50;99.90;;;;;;6201059;23;20039;-72
2022/05/18 02:59:58;;;;;;;7.53;2.30;;;13.50;99.90;;;;;;6205515;23;20004;-72
2022/05/18 03:02:24;;;;;;;4.35;1.90;;;13.40;99.90;;;;;;6201387;23;20422;-72
2022/05/18 03:04:50;;;;;;;5.50;1.88;;;13.40;99.90;;;;;;6177238;23;20004;-72
2022/05/18 03:07:16;;;;;;;2.50;1.85;;;13.30;99.90;;;;;;6204069;23;20460;-72
2022/05/18 03:09:42;;;;;;;11.65;4.22;;;13.30;99.90;;;;;;6204854;23;20008;-72
2022/05/18 03:12:08;;;;;;;3.58;2.00;;;13.20;99.90;;;;;;6202635;23;20029;-72
2022/05/18 03:14:34;;;;;;;4.82;1.63;;;13.20;99.90;;;;;;6203120;23;20008;-73
2022/05/18 03:17:00;;;;;;;2.30;1.70;;;13.20;99.90;;;;;;6204022;23;20350;-73
2022/05/18 03:19:26;;;;;;;3.70;1.60;;;13.20;99.90;;;;;;6203320;23;20015;-72
2022/05/18 03:24:36;;;;;;;2.92;1.52;;;13.20;99.90;;;;;;6202298;23;20527;-72
2022/05/18 03:27:02;;;;;;;3.63;1.58;;;13.10;99.90;;;;;;6202799;23;20005;-72
2022/05/18 03:29:28;;;;;;;7.65;1.98;;;13.20;99.90;;;;;;6203092;23;20044;-73
2022/05/18 03:31:53;;;;;;;4.85;1.90;;;13.20;99.90;;;;;;6203591;23;20079;-72
2022/05/18 03:34:19;;;;;;;5.60;1.73;;;13.20;99.90;;;;;;6201953;23;20466;-73
2022/05/18 03:36:45;;;;;;;4.22;1.65;;;13.20;99.90;;;;;;6204611;23;20024;-72
2022/05/18 03:39:11;;;;;;;1.83;1.60;;;13.20;99.90;;;;;;6202495;23;20024;-72
2022/05/18 03:41:36;;;;;;;7.78;1.88;;;13.20;99.90;;;;;;6189467;23;20016;-72
2022/05/18 03:44:04;;;;;;;1.80;1.45;;;13.20;99.90;;;;;;6203484;23;20401;-72
2022/05/18 03:46:30;;;;;;;4.47;1.42;;;13.20;99.90;;;;;;6206024;23;20011;-72
2022/05/18 03:48:56;;;;;;;3.88;1.70;;;13.20;99.90;;;;;;6204671;23;20079;-73
2022/05/18 03:51:21;;;;;;;4.35;1.95;;;13.20;99.90;;;;;;6203596;23;20012;-73
2022/05/18 03:53:47;;;;;;;13.05;2.03;;;13.20;99.90;;;;;;6203572;23;20641;-73
2022/05/18 03:56:13;;;;;;;4.10;1.45;;;13.20;99.90;;;;;;6202012;23;20732;-72
2022/05/18 03:58:40;;;;;;;2.90;1.40;;;13.20;99.90;;;;;;6202102;23;20510;-72
2022/05/18 04:01:10;;;;;;;4.15;1.70;;;13.20;99.90;;;;;;6202478;23;20084;-73
2022/05/18 04:03:38;;;;;;;5.07;1.55;;;13.20;99.90;;;;;;6202856;23;20079;-73
2022/05/18 04:06:05;;;;;;;15.25;3.25;;;13.30;99.90;;;;;;6200618;23;20007;-71
2022/05/18 04:08:30;;;;;;;6.65;1.63;;;13.30;99.90;;;;;;6202869;23;20107;-73
2022/05/18 04:10:57;;;;;;;7.57;1.98;;;13.30;99.90;;;;;;6199528;23;20032;-73
2022/05/18 04:13:27;;;;;;;2.55;1.63;;;13.30;99.90;;;;;;6202324;23;20465;-73
2022/05/18 04:15:53;;;;;;;3.55;1.15;;;13.30;99.90;;;;;;6177715;23;20027;-73
2022/05/18 04:18:19;;;;;;;5.05;1.50;;;13.40;99.90;;;;;;6194573;23;20013;-72
2022/05/18 04:20:45;;;;;;;3.25;1.50;;;13.50;99.90;;;;;;6200621;23;20297;-72
2022/05/18 04:23:12;;;;;;;3.70;1.60;;;13.50;99.90;;;;;;6201516;23;20024;-72
2022/05/18 04:25:39;;;;;;;1.70;1.23;;;13.60;99.90;;;;;;6200859;23;20047;-73
2022/05/18 04:28:07;;;;;;;6.07;1.50;;;13.70;99.90;;;;;;6198711;23;20474;-73
2022/05/18 04:30:34;;;;;;;2.92;1.40;;;13.80;99.90;;;;;;6200824;23;20118;-73
2022/05/18 04:33:01;;;;;;;1.48;1.38;;;13.90;99.90;;;;;;6204720;23;20000;-73
2022/05/18 04:35:28;;;;;;;1.95;1.15;;;14.00;99.90;;;;;;6203736;23;20004;-72
2022/05/18 04:37:55;;;;;;;2.10;1.25;;;14.10;99.90;;;;;;6204741;23;20023;-72
2022/05/18 04:40:21;;;;;;;5.25;1.42;;;14.20;99.90;;;;;;6201664;23;20019;-71
2022/05/18 04:42:47;;;;;;;3.53;1.33;;;14.30;99.90;;;;;;6203062;23;20004;-72
2022/05/18 04:45:19;;;;;;;3.38;1.55;;;14.40;99.90;;;;;;6201781;23;20078;-72
2022/05/18 04:47:45;;;;;;;;;;;14.50;99.90;;;;;;6203664;23;20296;-72
2022/05/18 04:50:12;;;;;;;2.22;1.48;;;14.50;99.90;;;;;;6206054;23;19904;-72
2022/05/18 04:52:37;;;;;;;1.80;1.10;;;14.50;99.90;;;;;;6204643;23;20008;-72
2022/05/18 04:55:04;;;;;;;3.35;1.20;;;14.50;99.50;;;;;;6203306;23;20011;-73
2022/05/18 04:57:30;;;;;;;2.90;1.27;;;14.50;99.90;;;;;;6200797;23;20582;-72
2022/05/18 04:59:55;;;;;;;4.57;1.27;;;14.60;99.90;;;;;;6205441;23;20406;-73
2022/05/18 05:02:21;;;;;;;4.07;1.55;;;14.60;99.90;;;;;;6200086;23;20024;-71
2022/05/18 05:04:47;;;;;;;6.22;1.55;;;14.80;99.20;;;;;;6204902;23;20040;-72
2022/05/18 05:07:13;;;;;;;3.83;1.20;;;14.80;99.40;;;;;;6204101;23;20493;-73
2022/05/18 05:09:38;;;;;;;2.65;1.30;;;14.80;98.80;;;;;;6197339;23;20012;-73
2022/05/18 05:12:05;;;;;;;5.97;1.52;;;14.90;98.50;;;;;;6204641;23;20013;-74
2022/05/18 05:14:33;;;;;;;5.22;1.20;;;14.90;98.00;;;;;;6205171;23;20155;-74
2022/05/18 05:17:00;;;;;;;2.80;1.20;;;15.00;99.00;;;;;;6202659;23;20449;-74
2022/05/18 05:19:26;;;;;;;1.50;1.00;;;15.10;98.00;;;;;;6199320;23;20000;-74
2022/05/18 05:21:51;;;;;;;7.60;2.05;;;15.10;97.80;;;;;;6173196;23;20059;-76
2022/05/18 05:24:18;;;;;;;9.68;1.92;;;15.10;98.20;;;;;;6203271;23;20025;-72
2022/05/18 05:26:44;;;;;;;5.63;1.45;;;15.20;97.50;;;;;;6198184;23;20000;-73
2022/05/18 05:29:11;;;;;;;1.98;1.40;;;15.20;97.20;;;;;;6202471;23;20009;-73
2022/05/18 05:31:38;;;;;;;2.15;1.15;;;15.20;97.00;;;;;;6202252;23;20001;-74
2022/05/18 05:34:04;;;;;;;1.70;0.82;;;15.20;96.90;;;;;;6203966;23;20087;-74
2022/05/18 05:36:30;;;;;;;5.85;1.20;;;15.20;96.80;;;;;;6204875;23;20027;-75
2022/05/18 05:38:56;;;;;;;3.15;1.30;;;15.30;97.00;;;;;;6199954;23;20013;-74
2022/05/18 05:41:23;;;;;;;1.77;1.17;;;15.40;97.60;;;;;;6203862;23;20005;-74
2022/05/18 05:43:50;;;;;;;4.47;1.02;;;15.40;96.10;;;;;;6206155;23;20004;-74
2022/05/18 05:46:17;;;;;;;2.88;1.10;;;15.40;96.80;;;;;;6206811;23;20008;-75
2022/05/18 05:48:45;;;;;;;3.65;1.40;;;15.40;96.00;;;;;;6206304;23;20377;-75
2022/05/18 05:51:13;;;;;;;4.20;1.17;;;15.40;96.80;;;;;;6203924;23;20035;-75
2022/05/18 05:53:46;;;;;;;2.00;0.90;;;15.50;95.80;;;;;;6202649;23;20081;-75
2022/05/18 05:56:13;;;;;;;3.47;1.25;;;15.50;95.70;;;;;;6205049;23;20004;-74
2022/05/18 05:58:40;;;;;;;2.63;1.05;;;15.50;95.40;;;;;;6207155;23;20115;-74
2022/05/18 06:01:08;;;;;;;2.10;0.90;;;15.60;96.30;;;;;;6203402;23;20009;-74
2022/05/18 06:03:36;;;;;;;1.88;1.02;;;15.60;95.40;;;;;;6206064;23;20009;-75
2022/05/18 06:06:03;;;;;;;3.72;1.58;;;15.60;95.10;;;;;;6206635;23;20054;-75
2022/05/18 06:08:30;;;;;;;4.57;1.27;;;15.60;96.40;;;;;;6204746;23;20000;-74
2022/05/18 06:10:57;;;;;;;3.53;1.00;;;15.70;96.10;;;;;;6201250;23;20502;-74
2022/05/18 06:13:23;;;;;;;2.90;0.90;;;15.80;95.80;;;;;;6200223;23;20082;-74
2022/05/18 06:15:48;;;;;;;2.17;0.98;;;16.00;95.00;;;;;;6179140;23;20012;-75
2022/05/18 06:18:14;;;;;;;3.42;1.42;;;16.00;94.80;;;;;;6203313;23;20074;-75
2022/05/18 06:20:40;;;;;;;2.10;1.25;;;16.20;94.80;;;;;;6206900;23;20050;-75
2022/05/18 06:23:08;;;;;;;3.22;1.00;;;16.30;94.40;;;;;;6168444;23;20028;-75
2022/05/18 06:25:34;;;;;;;4.20;1.13;;;16.40;93.00;;;;;;6174378;23;20009;-75
2022/05/18 06:28:00;;;;;;;2.17;1.05;;;16.50;93.70;;;;;;6174945;23;20112;-75
2022/05/18 06:30:27;;;;;;;1.23;0.93;;;16.60;91.70;;;;;;6175122;23;20037;-77
2022/05/18 06:32:53;;;;;;;3.80;0.88;;;16.40;91.20;;;;;;6174336;23;20171;-75
2022/05/18 06:35:19;;;;;;;3.15;0.90;;;16.40;91.80;;;;;;6177440;23;20009;-74
2022/05/18 06:37:44;;;;;;;2.67;0.98;;;16.40;92.50;;;;;;6173741;23;20029;-74
2022/05/18 06:40:10;;;;;;;4.35;1.02;;;16.60;92.10;;;;;;6176350;23;20197;-75
2022/05/18 06:42:36;;;;;;;3.38;1.00;;;16.60;92.10;;;;;;6175569;23;20123;-76
2022/05/18 06:45:03;;;;;;;4.50;0.90;;;16.50;91.60;;;;;;6174234;23;20059;-76
2022/05/18 06:47:30;;;;;;;2.13;1.02;;;16.50;91.10;;;;;;6173658;23;20009;-76
2022/05/18 06:49:56;;;;;;;4.13;1.10;;;16.40;91.50;;;;;;6178468;23;20097;-76
2022/05/18 06:52:22;;;;;;;3.65;1.05;;;16.40;90.50;;;;;;6173152;23;20009;-75
2022/05/18 06:54:48;;;;;;;2.85;0.95;;;16.30;90.20;;;;;;6173412;23;20133;-77
2022/05/18 06:57:14;;;;;;;2.40;0.65;;;16.20;90.30;;;;;;6169849;23;20009;-80
2022/05/18 06:59:40;;;;;;;4.85;0.95;;;16.30;90.00;;;;;;6176188;23;20441;-77
2022/05/18 07:02:07;;;;;;;3.17;1.08;;;16.30;89.70;;;;;;6172648;23;20033;-76
2022/05/18 07:04:33;;;;;;;2.58;0.80;;;16.40;89.60;;;;;;6169141;23;20013;-76
2022/05/18 07:07:00;;;;;;;5.28;0.95;;;16.50;90.00;;;;;;6169975;23;20522;-76
2022/05/18 07:09:27;;;;;;;4.88;1.00;;;16.50;87.60;;;;;;6174705;23;20072;-75
2022/05/18 07:11:53;;;;;;;2.45;0.70;;;16.50;88.00;;;;;;6173183;23;20374;-77
2022/05/18 07:14:28;;;;;;;1.80;0.90;;;16.50;89.00;;;;;;6171310;23;20040;-76
2022/05/18 07:16:55;;;;;;;1.33;0.93;;;16.60;87.20;;;;;;6172259;23;20336;-76
2022/05/18 07:19:22;;;;;;;1.92;0.95;;;16.70;88.20;;;;;;6173795;23;20012;-75
2022/05/18 07:21:48;;;;;;;6.75;1.02;;;16.80;87.50;;;;;;6169079;23;20004;-77
2022/05/18 07:24:14;;;;;;;5.35;0.90;;;16.70;84.80;;;;;;6194065;23;20031;-75
2022/05/18 07:26:41;;;;;;;2.00;0.90;;;16.60;84.90;;;;;;6205734;23;20005;-76
2022/05/18 07:29:08;;;;;;;5.13;0.90;;;16.50;85.40;;;;;;6173855;23;20000;-76
2022/05/18 07:32:08;;;;;;;3.42;1.00;;;16.60;85.40;;;;;;6198193;23;20019;-78
2022/05/18 07:34:21;;;;;;;2.83;0.90;;;16.80;86.60;;;;;;6197670;23;20480;-75
2022/05/18 07:36:51;;;;;;;2.80;0.85;;;17.00;86.80;;;;;;6200007;23;20059;-75
2022/05/18 07:39:17;;;;;;;3.47;1.00;;;17.20;85.30;;;;;;6199866;23;20020;-77
2022/05/18 07:41:44;;;;;;;2.92;0.70;;;17.20;80.80;;;;;;6197560;23;20016;-77
2022/05/18 07:44:10;;;;;;;3.65;0.73;;;17.10;80.20;;;;;;6197710;23;20011;-76
2022/05/18 07:46:36;;;;;;;2.08;0.70;;;17.10;80.10;;;;;;6202018;23;20005;-75
2022/05/18 07:49:03;;;;;;;1.80;1.00;;;17.20;78.40;;;;;;6194646;23;20445;-75
2022/05/18 07:51:28;;;;;;;1.65;0.68;;;17.10;76.90;;;;;;6198765;23;20008;-76
2022/05/18 07:53:54;;;;;;;7.45;0.60;;;17.00;78.00;;;;;;6201894;23;20016;-75
2022/05/18 07:56:20;;;;;;;3.40;0.65;;;17.10;77.40;;;;;;6202342;23;20012;-75
2022/05/18 07:58:46;;;;;;;3.08;0.90;;;17.20;78.30;;;;;;6200808;23;20181;-76
2022/05/18 08:01:11;;;;;;;0.98;0.70;;;17.30;77.80;;;;;;6196924;23;20008;-75
2022/05/18 08:03:37;;;;;;;2.15;0.70;;;17.50;78.00;;;;;;6196181;23;20012;-76
2022/05/18 08:06:03;;;;;;;2.58;0.98;;;17.50;79.50;;;;;;6202202;23;20008;-76
2022/05/18 08:08:29;;;;;;;1.65;1.10;;;17.60;78.70;;;;;;6200420;23;20326;-78
2022/05/18 08:16:25;;;;;;;3.83;1.00;;;17.50;70.20;;;;;;6206492;23;20071;-75
2022/05/18 08:18:51;;;;;;;3.50;0.90;;;17.40;75.10;;;;;;6204260;23;20027;-75
2022/05/18 08:21:17;;;;;;;0.98;0.60;;;17.50;73.50;;;;;;6203513;23;20068;-76
2022/05/18 08:23:43;;;;;;;2.88;0.68;;;17.50;71.10;;;;;;6200305;23;20029;-77
2022/05/18 08:26:09;;;;;;;4.78;0.77;;;17.50;70.90;;;;;;6199485;23;20103;-76
2022/05/18 08:28:35;;;;;;;2.08;0.98;;;17.50;69.10;;;;;;6199050;23;20008;-77
2022/05/18 08:31:01;;;;;;;1.75;0.70;;;17.50;68.90;;;;;;6201836;23;20008;-76
2022/05/18 08:33:33;;;;;;;3.75;0.90;;;17.40;68.90;;;;;;6196247;23;20013;-76
2022/05/18 08:36:00;;;;;;;4.82;1.02;;;17.50;70.80;;;;;;6175796;23;20020;-75
2022/05/18 08:38:26;;;;;;;2.72;0.88;;;17.50;71.70;;;;;;6200726;23;20017;-75
2022/05/18 08:40:57;;;;;;;2.60;0.90;;;17.50;70.10;;;;;;6199745;23;20330;-75
2022/05/18 08:43:34;;;;;;;6.63;0.70;;;17.50;72.60;;;;;;6200428;23;20009;-75
2022/05/18 08:46:20;;;;;;;1.25;0.80;;;17.80;71.10;;;;;;6202619;23;20086;-75
2022/05/18 08:49:18;;;;;;;1.90;0.85;;;17.90;72.40;;;;;;6201286;23;20031;-74
2022/05/18 08:52:04;;;;;;;2.97;1.13;;;17.90;68.50;;;;;;6203640;23;20044;-74
2022/05/18 08:55:02;;;;;;;1.20;0.90;;;17.90;67.30;;;;;;6205163;23;20050;-75
2022/05/18 08:57:37;;;;;;;1.67;0.70;;;17.80;68.80;;;;;;6197720;23;20005;-75
2022/05/18 09:00:13;;;;;;;1.50;0.70;;;17.70;66.00;;;;;;6197121;23;20505;-75
2022/05/18 09:02:41;;;;;;;6.18;0.93;;;17.80;64.80;;;;;;6200144;23;20034;-75
2022/05/18 09:05:37;;;;;;;2.97;0.70;;;17.80;63.90;;;;;;6204978;23;20008;-75
2022/05/18 09:08:23;;;;;;;0.90;0.73;;;17.80;64.70;;;;;;6191119;23;20016;-75
2022/05/18 09:10:54;;;;;;;2.63;0.70;;;18.00;69.60;;;;;;6202173;23;20004;-76
2022/05/18 09:13:20;;;;;;;1.00;0.75;;;18.20;71.80;;;;;;6200699;23;20074;-75
2022/05/18 09:16:18;;;;;;;2.00;0.60;;;18.30;65.60;;;;;;6203038;23;20013;-74
2022/05/18 09:19:10;;;;;;;3.22;0.65;;;18.10;65.90;;;;;;6204198;23;20437;-75
2022/05/18 09:22:00;;;;;;;4.45;0.75;;;18.20;62.70;;;;;;6200591;23;20005;-77
2022/05/18 09:24:45;;;;;;;4.88;0.85;;;18.10;63.30;;;;;;6196248;23;20120;-77
2022/05/18 09:27:10;;;;;;;1.35;0.90;;;18.10;59.70;;;;;;6201230;23;20013;-76
2022/05/18 09:29:40;;;;;;;2.47;0.93;;;17.90;65.40;;;;;;6202251;23;20504;-75
2022/05/18 09:32:24;;;;;;;5.78;0.88;;;18.00;62.40;;;;;;6197028;23;20103;-76
2022/05/18 09:34:59;;;;;;;1.55;0.55;;;18.10;63.60;;;;;;6205854;23;20427;-75
2022/05/18 09:37:27;;;;;;;1.85;0.63;;;18.10;61.90;;;;;;6207025;23;20008;-76
2022/05/18 09:40:04;;;;;;;1.65;0.80;;;18.20;64.90;;;;;;6207077;23;20394;-75
2022/05/18 09:42:35;;;;;;;1.48;0.68;;;18.30;64.80;;;;;;6198706;23;20012;-75
2022/05/18 09:45:10;;;;;;;2.38;0.80;;;18.40;58.50;;;;;;6202648;23;20011;-73
2022/05/18 09:47:49;;;;;;;0.75;0.60;;;18.30;55.80;;;;;;6203712;23;20464;-74
2022/05/18 09:50:14;;;;;;;3.70;0.82;;;18.30;61.00;;;;;;6206655;23;19997;-74
2022/05/18 09:52:42;;;;;;;1.63;0.63;;;18.40;58.10;;;;;;6204887;23;20088;-77
2022/05/18 09:55:12;;;;;;;5.20;0.60;;;18.40;57.30;;;;;;6206280;23;20111;-77
2022/05/18 09:57:49;;;;;;;2.17;1.35;;;18.30;58.00;;;;;;6205384;23;20013;-76
2022/05/18 10:00:27;;;;;;;1.80;0.98;;;18.40;62.90;;;;;;6206066;23;20047;-75
2022/05/18 10:08:45;;;;;;;3.00;0.65;;;19.00;64.40;;;;;;6198955;23;20224;-75
2022/05/18 10:11:18;;;;;;;2.85;0.70;;;19.00;59.20;;;;;;6196909;23;20289;-76
2022/05/18 10:14:13;;;;;;;3.17;0.85;;;18.90;59.80;;;;;;6199461;23;20076;-77
2022/05/18 10:16:58;;;;;;;1.08;0.85;;;18.90;58.90;;;;;;6194133;23;20008;-76
2022/05/18 10:19:27;;;;;;;4.97;0.75;;;19.00;61.20;;;;;;6200278;23;20012;-77
2022/05/18 10:21:57;;;;;;;2.25;1.05;;;19.00;59.60;;;;;;6202122;23;20005;-75
2022/05/18 10:24:41;;;;;;;2.15;0.60;;;18.90;61.40;;;;;;6204716;23;20029;-75
2022/05/18 10:27:14;;;;;;;1.98;0.63;;;18.90;60.70;;;;;;6206722;23;20394;-75
2022/05/18 10:30:00;;;;;;;3.50;0.50;;;19.10;59.10;;;;;;6205362;23;20035;-75
2022/05/18 10:32:31;;;;;;;2.80;0.50;;;19.20;58.10;;;;;;6205718;23;20708;-75
2022/05/18 10:34:57;;;;;;;0.75;0.45;;;19.20;54.00;;;;;;6203452;23;20005;-75
2022/05/18 10:37:35;;;;;;;1.05;0.50;;;19.20;52.40;;;;;;6204723;23;20012;-73
2022/05/18 10:40:12;;;;;;;3.50;0.47;;;19.10;47.90;;;;;;6204363;23;20061;-74
2022/05/18 10:42:50;;;;;;;2.80;0.55;;;18.90;48.50;;;;;;6204892;23;20007;-75
2022/05/18 10:45:35;;;;;;;1.65;0.30;;;18.90;51.20;;;;;;6205287;23;20015;-75
2022/05/18 10:48:17;;;;;;;2.25;0.50;;;19.10;48.40;;;;;;6180098;23;20390;-74
2022/05/18 10:50:43;;;;;;;;;;;19.20;48.40;;;;;;6203429;23;20009;-76
2022/05/18 10:53:15;;;;;;;2.92;0.70;;;19.30;54.30;;;;;;6201983;23;19899;-74
2022/05/18 10:55:55;;;;;;;;;;;19.50;50.30;;;;;;6202371;23;20043;-69
2022/05/18 10:58:26;;;;;;;3.30;0.50;;;19.60;48.90;;;;;;6202553;23;20329;-68
2022/05/18 11:01:18;;;;;;;5.60;0.90;;;19.60;48.00;;;;;;6200664;23;20008;-68
2022/05/18 11:03:58;;;;;;;1.67;0.40;;;19.60;50.10;;;;;;6202667;23;20046;-68
2022/05/18 11:06:29;;;;;;;1.17;0.30;;;19.80;50.60;;;;;;6200118;23;20389;-68
2022/05/18 11:09:00;;;;;;;0.70;0.28;;;19.80;47.00;;;;;;6203706;23;20008;-72
2022/05/18 11:11:45;;;;;;;0.98;0.38;;;19.90;46.40;;;;;;6200548;23;20004;-72
2022/05/18 11:14:26;;;;;;;6.38;0.30;;;20.10;42.30;;;;;;6203716;23;20011;-72
2022/05/18 11:17:21;;;;;;;5.55;0.32;;;20.20;43.10;;;;;;6200875;23;20354;-73
2022/05/18 11:20:11;;;;;;;2.35;0.82;;;20.20;43.00;;;;;;6202769;23;20013;-79
2022/05/18 11:23:11;;;;;;;3.83;1.25;;;20.20;39.00;;;;;;6202677;23;19997;-73
2022/05/18 11:25:55;;;;;;;2.25;0.32;;;20.20;40.30;;;;;;6205259;23;20130;-76
2022/05/18 11:28:31;;;;;;;4.20;0.30;;;20.20;41.40;;;;;;6203908;23;20333;-76
2022/05/18 11:31:16;;;;;;;1.42;0.50;;;20.20;40.00;;;;;;6203300;23;20080;-76
2022/05/18 11:34:04;;;;;;;0.95;0.50;;;20.10;41.70;;;;;;6205860;23;20386;-78
2022/05/18 11:36:48;;;;;;;0.85;0.20;;;20.00;37.30;;;;;;6195635;23;20666;-77
2022/05/18 11:39:32;;;;;;;1.20;0.40;;;19.90;38.80;;;;;;6203919;23;20082;-70
2022/05/18 11:42:20;;;;;;;1.58;0.30;;;19.90;38.90;;;;;;6198588;23;20594;-69
2022/05/18 11:45:09;;;;;;;0.60;0.25;;;19.90;39.30;;;;;;6205682;23;20572;-77
2022/05/18 11:47:44;;;;;;;2.03;0.30;;;20.00;42.10;;;;;;6131773;23;20056;-78
2022/05/18 11:50:33;;;;;;;2.03;0.40;;;20.00;37.40;;;;;;6204376;23;20140;-78
2022/05/18 11:53:12;;;;;;;3.72;0.32;;;20.00;38.60;;;;;;6206246;23;20087;-79
2022/05/18 11:55:50;;;;;;;2.88;0.20;;;20.00;40.60;;;;;;6207194;23;20028;-79
2022/05/18 11:58:47;;;;;;;2.75;0.43;;;20.10;40.80;;;;;;6207565;23;20015;-77
2022/05/18 12:01:51;;;;;;;0.13;0.13;;;20.20;40.10;;;;;;6208227;23;20005;-78
2022/05/18 12:04:39;;;;;;;0.50;0.22;;;20.30;40.00;;;;;;6201115;23;20462;-79
2022/05/18 12:07:38;;;;;;;2.28;0.30;;;20.40;40.70;;;;;;6208101;23;20069;-80
2022/05/18 12:10:29;;;;;;;5.57;0.65;;;20.50;39.10;;;;;;6210363;23;20016;-80
2022/05/18 12:13:05;;;;;;;1.63;0.40;;;20.50;39.90;;;;;;6209191;23;20020;-79
2022/05/18 12:15:50;;;;;;;0.30;0.25;;;20.50;38.70;;;;;;6208231;23;20512;-80
2022/05/18 12:18:24;;;;;;;0.57;0.28;;;20.50;42.70;;;;;;6207042;23;20015;-76
2022/05/18 12:20:59;;;;;;;9.65;8.63;;;20.60;41.60;;;;;;6207739;23;20000;-77
2022/05/18 12:23:29;;;;;;;1.27;0.60;;;20.70;37.70;;;;;;6207884;23;20334;-81
2022/05/18 12:25:56;;;;;;;2.28;0.20;;;20.50;37.80;;;;;;6207874;23;20001;-78
2022/05/18 12:28:24;;;;;;;1.33;0.30;;;20.40;37.10;;;;;;6208461;23;20015;-79
2022/05/18 12:30:50;;;;;;;1.58;0.40;;;20.40;37.00;;;;;;6207669;23;20841;-78
2022/05/18 12:33:18;;;;;;;1.65;0.35;;;20.40;36.10;;;;;;6207994;23;20032;-77
2022/05/18 12:35:59;;;;;;;0.90;0.40;;;20.40;37.30;;;;;;6207500;23;20108;-79
2022/05/18 12:38:28;;;;;;;1.80;0.30;;;20.60;41.30;;;;;;6208266;23;20454;-79
2022/05/18 12:41:03;;;;;;;1.42;0.38;;;20.80;37.60;;;;;;6207327;23;20107;-81
2022/05/18 12:43:50;;;;;;;2.97;0.43;;;20.60;35.20;;;;;;6208137;23;20221;-79
2022/05/18 12:46:16;;;;;;;4.10;0.30;;;20.60;39.50;;;;;;6206550;23;20074;-80
2022/05/18 12:48:50;;;;;;;4.20;0.30;;;20.70;37.40;;;;;;6207373;23;20410;-79
2022/05/18 12:51:27;;;;;;;5.35;0.40;;;20.60;34.00;;;;;;6207105;23;20491;-80
2022/05/18 12:54:02;;;;;;;1.95;0.43;;;20.40;36.10;;;;;;6207570;23;20007;-80
2022/05/18 12:56:36;;;;;;;0.60;0.28;;;20.40;35.00;;;;;;6205863;23;20011;-80
2022/05/18 12:59:16;;;;;;;0.50;0.50;;;20.40;34.40;;;;;;6197897;23;20023;-82
2022/05/18 13:01:44;;;;;;;4.18;1.40;;;20.40;30.90;;;;;;6204913;23;20079;-79
2022/05/18 13:04:10;;;;;;;2.30;0.80;;;20.40;32.70;;;;;;6204631;23;20127;-78
2022/05/18 13:06:35;;;;;;;2.08;0.40;;;20.40;32.00;;;;;;6206238;23;20095;-76
2022/05/18 13:09:04;;;;;;;0.30;0.30;;;20.30;33.20;;;;;;6207557;23;20005;-76
2022/05/18 13:12:13;;;;;;;0.30;0.30;;;20.40;34.80;;;;;;6206205;23;20007;-79
2022/05/18 13:14:43;;;;;;;0.60;0.47;;;20.50;36.90;;;;;;6135277;23;20032;-81
2022/05/18 13:17:11;;;;;;;2.35;0.35;;;20.60;36.10;;;;;;6207493;23;20496;-76
2022/05/18 13:19:42;;;;;;;1.70;0.22;;;20.50;35.10;;;;;;6193670;23;20024;-76
2022/05/18 13:22:07;;;;;;;1.25;0.32;;;20.50;36.10;;;;;;6208277;23;20005;-76
2022/05/18 13:24:41;;;;;;;0.30;0.10;;;20.60;37.10;;;;;;6209425;23;20031;-77